sensor_id;sensor_type;location;lat;lon;timestamp;temperature;humidity
76967;DHT22;65904;52.278;20.972;2023-04-06T00:00:23;2.20;96.80
76967;DHT22;65904;52.278;20.972;2023-04-06T00:03:16;2.20;96.80
76967;DHT22;65904;52.278;20.972;2023-04-06T00:06:02;2.20;97.10
76967;DHT22;65904;52.278;20.972;2023-04-06T00:08:49;2.20;97.00
76967;DHT22;65904;52.278;20.972;2023-04-06T00:11:35;2.20;97.30
76967;DHT22;65904;52.278;20.972;2023-04-06T00:14:21;2.20;97.40
76967;DHT22;65904;52.278;20.972;2023-04-06T00:17:08;2.20;97.40
76967;DHT22;65904;52.278;20.972;2023-04-06T00:19:54;2.20;97.50
76967;DHT22;65904;52.278;20.972;2023-04-06T00:22:41;2.20;97.70
76967;DHT22;65904;52.278;20.972;2023-04-06T00:25:27;2.20;97.50
76967;DHT22;65904;52.278;20.972;2023-04-06T00:28:13;2.20;97.80
76967;DHT22;65904;52.278;20.972;2023-04-06T00:30:59;2.20;97.80
76967;DHT22;65904;52.278;20.972;2023-04-06T00:33:48;2.20;97.80
76967;DHT22;65904;52.278;20.972;2023-04-06T00:36:34;2.20;97.60
76967;DHT22;65904;52.278;20.972;2023-04-06T00:39:20;2.20;97.70
76967;DHT22;65904;52.278;20.972;2023-04-06T00:42:10;2.20;97.70
76967;DHT22;65904;52.278;20.972;2023-04-06T00:44:58;2.20;97.50
76967;DHT22;65904;52.278;20.972;2023-04-06T00:47:45;2.20;97.40
76967;DHT22;65904;52.278;20.972;2023-04-06T00:50:33;2.20;97.70
76967;DHT22;65904;52.278;20.972;2023-04-06T00:53:19;2.20;97.20
76967;DHT22;65904;52.278;20.972;2023-04-06T00:56:06;2.30;97.40
76967;DHT22;65904;52.278;20.972;2023-04-06T00:59:05;2.20;97.00
76967;DHT22;65904;52.278;20.972;2023-04-06T01:01:51;2.30;96.90
76967;DHT22;65904;52.278;20.972;2023-04-06T01:04:50;2.30;96.90
76967;DHT22;65904;52.278;20.972;2023-04-06T01:07:53;2.30;97.00
76967;DHT22;65904;52.278;20.972;2023-04-06T01:10:43;2.30;97.20
76967;DHT22;65904;52.278;20.972;2023-04-06T01:13:43;2.30;97.00
76967;DHT22;65904;52.278;20.972;2023-04-06T01:16:41;2.30;97.20
76967;DHT22;65904;52.278;20.972;2023-04-06T01:19:31;2.30;97.10
76967;DHT22;65904;52.278;20.972;2023-04-06T01:22:19;2.20;97.50
76967;DHT22;65904;52.278;20.972;2023-04-06T01:25:15;2.20;97.40
76967;DHT22;65904;52.278;20.972;2023-04-06T01:28:18;2.20;97.50
76967;DHT22;65904;52.278;20.972;2023-04-06T01:31:12;2.20;97.40
76967;DHT22;65904;52.278;20.972;2023-04-06T01:34:04;2.20;97.70
76967;DHT22;65904;52.278;20.972;2023-04-06T01:36:51;2.20;97.80
76967;DHT22;65904;52.278;20.972;2023-04-06T01:39:50;2.20;97.80
76967;DHT22;65904;52.278;20.972;2023-04-06T01:42:46;2.10;98.00
76967;DHT22;65904;52.278;20.972;2023-04-06T01:45:38;2.10;98.10
76967;DHT22;65904;52.278;20.972;2023-04-06T01:48:36;2.20;98.00
76967;DHT22;65904;52.278;20.972;2023-04-06T01:51:32;2.20;98.00
76967;DHT22;65904;52.278;20.972;2023-04-06T01:54:20;2.20;98.10
76967;DHT22;65904;52.278;20.972;2023-04-06T01:57:26;2.20;98.30
76967;DHT22;65904;52.278;20.972;2023-04-06T02:00:20;2.10;98.40
76967;DHT22;65904;52.278;20.972;2023-04-06T02:03:11;2.10;98.50
76967;DHT22;65904;52.278;20.972;2023-04-06T02:05:59;2.10;98.40
76967;DHT22;65904;52.278;20.972;2023-04-06T02:08:51;2.10;98.70
76967;DHT22;65904;52.278;20.972;2023-04-06T02:11:38;2.10;98.70
76967;DHT22;65904;52.278;20.972;2023-04-06T02:14:26;2.10;98.80
76967;DHT22;65904;52.278;20.972;2023-04-06T02:17:16;2.10;98.90
76967;DHT22;65904;52.278;20.972;2023-04-06T02:20:03;2.00;99.00
76967;DHT22;65904;52.278;20.972;2023-04-06T02:22:49;2.10;99.30
76967;DHT22;65904;52.278;20.972;2023-04-06T02:25:35;2.00;99.60
76967;DHT22;65904;52.278;20.972;2023-04-06T02:28:21;2.00;99.60
76967;DHT22;65904;52.278;20.972;2023-04-06T02:31:09;2.00;99.70
76967;DHT22;65904;52.278;20.972;2023-04-06T02:33:56;2.00;99.90
76967;DHT22;65904;52.278;20.972;2023-04-06T02:36:43;2.00;99.90
76967;DHT22;65904;52.278;20.972;2023-04-06T02:39:29;2.00;99.90
76967;DHT22;65904;52.278;20.972;2023-04-06T02:42:17;2.00;99.90
76967;DHT22;65904;52.278;20.972;2023-04-06T02:45:06;2.00;99.90
76967;DHT22;65904;52.278;20.972;2023-04-06T02:48:00;2.00;99.90
76967;DHT22;65904;52.278;20.972;2023-04-06T02:50:48;2.00;99.90
76967;DHT22;65904;52.278;20.972;2023-04-06T02:53:34;1.90;99.90
76967;DHT22;65904;52.278;20.972;2023-04-06T02:56:21;1.90;99.90
76967;DHT22;65904;52.278;20.972;2023-04-06T02:59:09;1.90;99.90
76967;DHT22;65904;52.278;20.972;2023-04-06T03:01:56;1.80;99.90
76967;DHT22;65904;52.278;20.972;2023-04-06T03:04:45;1.80;99.90
76967;DHT22;65904;52.278;20.972;2023-04-06T03:07:41;1.80;99.90
76967;DHT22;65904;52.278;20.972;2023-04-06T03:10:33;1.70;99.90
76967;DHT22;65904;52.278;20.972;2023-04-06T03:13:18;1.70;99.90
76967;DHT22;65904;52.278;20.972;2023-04-06T03:16:14;1.60;99.90
76967;DHT22;65904;52.278;20.972;2023-04-06T03:19:01;1.60;99.90
76967;DHT22;65904;52.278;20.972;2023-04-06T03:21:52;1.60;99.90
76967;DHT22;65904;52.278;20.972;2023-04-06T03:24:41;1.60;99.90
76967;DHT22;65904;52.278;20.972;2023-04-06T03:27:27;1.60;99.90
76967;DHT22;65904;52.278;20.972;2023-04-06T03:30:14;1.50;99.90
76967;DHT22;65904;52.278;20.972;2023-04-06T03:33:02;1.50;99.90
76967;DHT22;65904;52.278;20.972;2023-04-06T03:35:52;1.50;99.90
76967;DHT22;65904;52.278;20.972;2023-04-06T03:38:40;1.50;99.90
76967;DHT22;65904;52.278;20.972;2023-04-06T03:41:31;1.40;99.90
76967;DHT22;65904;52.278;20.972;2023-04-06T03:44:32;1.40;99.90
76967;DHT22;65904;52.278;20.972;2023-04-06T03:47:19;1.40;99.90
76967;DHT22;65904;52.278;20.972;2023-04-06T03:50:06;1.30;99.90
76967;DHT22;65904;52.278;20.972;2023-04-06T03:52:54;1.30;99.90
76967;DHT22;65904;52.278;20.972;2023-04-06T03:55:41;1.30;99.90
76967;DHT22;65904;52.278;20.972;2023-04-06T03:58:27;1.20;99.90
76967;DHT22;65904;52.278;20.972;2023-04-06T04:01:13;1.30;99.90
76967;DHT22;65904;52.278;20.972;2023-04-06T04:04:00;1.30;99.90
76967;DHT22;65904;52.278;20.972;2023-04-06T04:06:46;1.30;99.90
76967;DHT22;65904;52.278;20.972;2023-04-06T04:09:32;1.30;99.90
76967;DHT22;65904;52.278;20.972;2023-04-06T04:12:19;1.30;99.90
76967;DHT22;65904;52.278;20.972;2023-04-06T04:15:06;1.40;99.90
76967;DHT22;65904;52.278;20.972;2023-04-06T04:17:52;1.40;99.90
76967;DHT22;65904;52.278;20.972;2023-04-06T04:20:38;1.40;99.90
76967;DHT22;65904;52.278;20.972;2023-04-06T04:23:25;1.40;99.90
76967;DHT22;65904;52.278;20.972;2023-04-06T04:26:11;1.50;99.90
76967;DHT22;65904;52.278;20.972;2023-04-06T04:29:00;1.50;99.90
76967;DHT22;65904;52.278;20.972;2023-04-06T04:31:45;1.50;99.90
76967;DHT22;65904;52.278;20.972;2023-04-06T04:34:35;1.50;99.90
76967;DHT22;65904;52.278;20.972;2023-04-06T04:37:25;1.50;99.90
76967;DHT22;65904;52.278;20.972;2023-04-06T04:40:14;1.50;99.90
76967;DHT22;65904;52.278;20.972;2023-04-06T04:43:10;1.50;99.90
76967;DHT22;65904;52.278;20.972;2023-04-06T04:45:58;1.50;99.90
76967;DHT22;65904;52.278;20.972;2023-04-06T04:48:54;1.50;99.90
76967;DHT22;65904;52.278;20.972;2023-04-06T04:51:41;1.50;99.90
76967;DHT22;65904;52.278;20.972;2023-04-06T04:54:30;1.60;99.90
76967;DHT22;65904;52.278;20.972;2023-04-06T04:57:17;1.70;99.90
76967;DHT22;65904;52.278;20.972;2023-04-06T05:00:04;1.70;99.90
76967;DHT22;65904;52.278;20.972;2023-04-06T05:02:52;1.80;99.90
76967;DHT22;65904;52.278;20.972;2023-04-06T05:05:43;1.80;99.90
76967;DHT22;65904;52.278;20.972;2023-04-06T05:08:30;1.90;99.90
76967;DHT22;65904;52.278;20.972;2023-04-06T05:11:17;2.00;99.90
76967;DHT22;65904;52.278;20.972;2023-04-06T05:14:12;2.00;99.90
76967;DHT22;65904;52.278;20.972;2023-04-06T05:16:58;2.00;99.90
76967;DHT22;65904;52.278;20.972;2023-04-06T05:19:46;2.10;99.90
76967;DHT22;65904;52.278;20.972;2023-04-06T05:22:38;2.10;99.90
76967;DHT22;65904;52.278;20.972;2023-04-06T05:25:28;2.10;99.90
76967;DHT22;65904;52.278;20.972;2023-04-06T05:28:20;2.10;99.90
76967;DHT22;65904;52.278;20.972;2023-04-06T05:31:06;2.10;99.90
76967;DHT22;65904;52.278;20.972;2023-04-06T05:34:03;2.10;99.90
76967;DHT22;65904;52.278;20.972;2023-04-06T05:36:54;2.10;99.90
76967;DHT22;65904;52.278;20.972;2023-04-06T05:39:43;2.20;99.90
76967;DHT22;65904;52.278;20.972;2023-04-06T05:42:36;2.30;99.90
76967;DHT22;65904;52.278;20.972;2023-04-06T05:45:23;2.40;99.90
76967;DHT22;65904;52.278;20.972;2023-04-06T05:48:14;2.50;99.90
76967;DHT22;65904;52.278;20.972;2023-04-06T05:50:59;2.70;99.90
76967;DHT22;65904;52.278;20.972;2023-04-06T05:53:58;2.90;99.90
76967;DHT22;65904;52.278;20.972;2023-04-06T05:56:45;3.00;99.90
76967;DHT22;65904;52.278;20.972;2023-04-06T05:59:32;3.20;99.90
76967;DHT22;65904;52.278;20.972;2023-04-06T06:02:18;3.20;99.90
76967;DHT22;65904;52.278;20.972;2023-04-06T06:05:08;3.30;99.90
76967;DHT22;65904;52.278;20.972;2023-04-06T06:07:54;3.40;99.90
76967;DHT22;65904;52.278;20.972;2023-04-06T06:10:42;3.50;99.90
76967;DHT22;65904;52.278;20.972;2023-04-06T06:13:30;3.50;99.90
76967;DHT22;65904;52.278;20.972;2023-04-06T06:16:17;3.50;99.90
76967;DHT22;65904;52.278;20.972;2023-04-06T06:19:05;3.70;99.90
76967;DHT22;65904;52.278;20.972;2023-04-06T06:21:51;3.80;99.90
76967;DHT22;65904;52.278;20.972;2023-04-06T06:24:38;3.90;99.90
76967;DHT22;65904;52.278;20.972;2023-04-06T06:27:25;4.00;99.90
76967;DHT22;65904;52.278;20.972;2023-04-06T06:30:12;4.20;99.90
76967;DHT22;65904;52.278;20.972;2023-04-06T06:33:00;4.20;99.40
76967;DHT22;65904;52.278;20.972;2023-04-06T06:35:47;4.30;99.20
76967;DHT22;65904;52.278;20.972;2023-04-06T06:38:33;4.20;99.00
76967;DHT22;65904;52.278;20.972;2023-04-06T06:41:20;4.20;98.90
76967;DHT22;65904;52.278;20.972;2023-04-06T06:44:08;4.30;99.30
76967;DHT22;65904;52.278;20.972;2023-04-06T06:46:54;4.20;98.40
76967;DHT22;65904;52.278;20.972;2023-04-06T06:49:40;4.30;98.70
76967;DHT22;65904;52.278;20.972;2023-04-06T06:52:27;4.30;98.50
76967;DHT22;65904;52.278;20.972;2023-04-06T06:55:14;4.30;98.30
76967;DHT22;65904;52.278;20.972;2023-04-06T06:58:00;4.40;98.60
76967;DHT22;65904;52.278;20.972;2023-04-06T07:00:47;4.20;98.40
76967;DHT22;65904;52.278;20.972;2023-04-06T07:03:34;4.30;98.80
76967;DHT22;65904;52.278;20.972;2023-04-06T07:06:20;4.40;99.10
76967;DHT22;65904;52.278;20.972;2023-04-06T07:09:06;4.60;99.10
76967;DHT22;65904;52.278;20.972;2023-04-06T07:11:53;4.70;98.80
76967;DHT22;65904;52.278;20.972;2023-04-06T07:14:38;4.70;98.30
76967;DHT22;65904;52.278;20.972;2023-04-06T07:17:26;4.90;98.40
76967;DHT22;65904;52.278;20.972;2023-04-06T07:20:13;5.00;97.30
76967;DHT22;65904;52.278;20.972;2023-04-06T07:22:59;5.10;97.10
76967;DHT22;65904;52.278;20.972;2023-04-06T07:25:45;5.10;97.20
76967;DHT22;65904;52.278;20.972;2023-04-06T07:28:31;5.10;97.20
76967;DHT22;65904;52.278;20.972;2023-04-06T07:31:19;5.00;97.50
76967;DHT22;65904;52.278;20.972;2023-04-06T07:34:07;4.90;97.30
76967;DHT22;65904;52.278;20.972;2023-04-06T07:36:53;4.80;97.80
76967;DHT22;65904;52.278;20.972;2023-04-06T07:39:39;4.90;97.80
76967;DHT22;65904;52.278;20.972;2023-04-06T07:42:25;4.90;97.70
76967;DHT22;65904;52.278;20.972;2023-04-06T07:45:12;4.90;97.20
76967;DHT22;65904;52.278;20.972;2023-04-06T07:47:58;4.90;97.70
76967;DHT22;65904;52.278;20.972;2023-04-06T07:50:47;4.90;98.10
76967;DHT22;65904;52.278;20.972;2023-04-06T07:53:34;4.90;97.70
76967;DHT22;65904;52.278;20.972;2023-04-06T07:56:21;5.10;98.40
76967;DHT22;65904;52.278;20.972;2023-04-06T07:59:07;5.00;97.90
76967;DHT22;65904;52.278;20.972;2023-04-06T08:01:53;5.10;97.90
76967;DHT22;65904;52.278;20.972;2023-04-06T08:04:39;5.30;97.90
76967;DHT22;65904;52.278;20.972;2023-04-06T08:07:26;5.50;97.80
76967;DHT22;65904;52.278;20.972;2023-04-06T08:10:12;5.50;97.90
76967;DHT22;65904;52.278;20.972;2023-04-06T08:12:59;5.50;97.80
76967;DHT22;65904;52.278;20.972;2023-04-06T08:15:45;5.30;98.20
76967;DHT22;65904;52.278;20.972;2023-04-06T08:18:32;5.40;98.50
76967;DHT22;65904;52.278;20.972;2023-04-06T08:21:18;5.30;98.50
76967;DHT22;65904;52.278;20.972;2023-04-06T08:24:06;5.20;98.70
76967;DHT22;65904;52.278;20.972;2023-04-06T08:26:52;5.20;99.30
76967;DHT22;65904;52.278;20.972;2023-04-06T08:29:39;5.40;99.80
76967;DHT22;65904;52.278;20.972;2023-04-06T08:32:25;5.60;99.40
76967;DHT22;65904;52.278;20.972;2023-04-06T08:35:11;5.50;99.70
76967;DHT22;65904;52.278;20.972;2023-04-06T08:37:57;5.60;99.90
76967;DHT22;65904;52.278;20.972;2023-04-06T08:40:45;5.80;99.90
76967;DHT22;65904;52.278;20.972;2023-04-06T08:43:33;6.00;99.90
76967;DHT22;65904;52.278;20.972;2023-04-06T08:46:21;5.80;99.60
76967;DHT22;65904;52.278;20.972;2023-04-06T08:49:08;5.70;99.90
76967;DHT22;65904;52.278;20.972;2023-04-06T08:51:55;5.30;99.90
76967;DHT22;65904;52.278;20.972;2023-04-06T08:54:41;5.10;99.90
76967;DHT22;65904;52.278;20.972;2023-04-06T08:57:31;5.00;99.90
76967;DHT22;65904;52.278;20.972;2023-04-06T09:00:18;4.80;99.90
76967;DHT22;65904;52.278;20.972;2023-04-06T09:03:05;4.80;99.90
76967;DHT22;65904;52.278;20.972;2023-04-06T09:05:51;4.80;99.90
76967;DHT22;65904;52.278;20.972;2023-04-06T09:08:39;4.60;99.90
76967;DHT22;65904;52.278;20.972;2023-04-06T09:11:26;4.70;99.90
76967;DHT22;65904;52.278;20.972;2023-04-06T09:14:14;4.70;99.90
76967;DHT22;65904;52.278;20.972;2023-04-06T09:17:01;4.60;99.90
76967;DHT22;65904;52.278;20.972;2023-04-06T09:19:48;4.80;99.90
76967;DHT22;65904;52.278;20.972;2023-04-06T09:22:38;4.90;99.90
76967;DHT22;65904;52.278;20.972;2023-04-06T09:25:25;4.80;99.90
76967;DHT22;65904;52.278;20.972;2023-04-06T09:28:12;4.70;99.90
76967;DHT22;65904;52.278;20.972;2023-04-06T09:30:59;4.60;99.90
76967;DHT22;65904;52.278;20.972;2023-04-06T09:33:45;4.70;99.90
76967;DHT22;65904;52.278;20.972;2023-04-06T09:36:33;4.70;99.90
76967;DHT22;65904;52.278;20.972;2023-04-06T09:39:21;4.60;99.90
76967;DHT22;65904;52.278;20.972;2023-04-06T09:42:08;4.50;99.90
76967;DHT22;65904;52.278;20.972;2023-04-06T09:44:54;4.40;99.90
76967;DHT22;65904;52.278;20.972;2023-04-06T09:47:44;4.30;99.90
76967;DHT22;65904;52.278;20.972;2023-04-06T09:50:30;4.40;99.90
76967;DHT22;65904;52.278;20.972;2023-04-06T09:53:19;4.30;99.90
76967;DHT22;65904;52.278;20.972;2023-04-06T09:56:05;4.10;99.90
76967;DHT22;65904;52.278;20.972;2023-04-06T09:58:57;4.10;99.90
76967;DHT22;65904;52.278;20.972;2023-04-06T10:01:48;4.10;99.90
76967;DHT22;65904;52.278;20.972;2023-04-06T10:04:41;4.20;99.90
76967;DHT22;65904;52.278;20.972;2023-04-06T10:07:28;4.20;99.90
76967;DHT22;65904;52.278;20.972;2023-04-06T10:10:15;4.10;99.90
76967;DHT22;65904;52.278;20.972;2023-04-06T10:13:01;4.00;99.90
76967;DHT22;65904;52.278;20.972;2023-04-06T10:15:48;3.90;99.90
76967;DHT22;65904;52.278;20.972;2023-04-06T10:18:35;4.00;99.90
76967;DHT22;65904;52.278;20.972;2023-04-06T10:21:25;4.10;99.90
76967;DHT22;65904;52.278;20.972;2023-04-06T10:24:12;4.30;99.90
76967;DHT22;65904;52.278;20.972;2023-04-06T10:27:00;4.40;99.90
76967;DHT22;65904;52.278;20.972;2023-04-06T10:29:47;4.40;99.90
76967;DHT22;65904;52.278;20.972;2023-04-06T10:32:35;4.40;99.90
76967;DHT22;65904;52.278;20.972;2023-04-06T10:35:22;4.40;99.90
76967;DHT22;65904;52.278;20.972;2023-04-06T10:38:10;4.30;99.90
76967;DHT22;65904;52.278;20.972;2023-04-06T10:41:04;4.20;99.90
76967;DHT22;65904;52.278;20.972;2023-04-06T10:43:56;3.90;99.90
76967;DHT22;65904;52.278;20.972;2023-04-06T10:46:52;3.70;99.90
76967;DHT22;65904;52.278;20.972;2023-04-06T10:49:39;3.70;99.90
76967;DHT22;65904;52.278;20.972;2023-04-06T10:52:25;3.70;99.90
76967;DHT22;65904;52.278;20.972;2023-04-06T10:55:13;3.60;99.90
76967;DHT22;65904;52.278;20.972;2023-04-06T10:58:00;3.60;99.90
76967;DHT22;65904;52.278;20.972;2023-04-06T11:00:47;3.70;99.90
76967;DHT22;65904;52.278;20.972;2023-04-06T11:03:42;3.80;99.90
76967;DHT22;65904;52.278;20.972;2023-04-06T11:06:30;3.80;99.90
76967;DHT22;65904;52.278;20.972;2023-04-06T11:09:24;3.80;99.90
76967;DHT22;65904;52.278;20.972;2023-04-06T11:12:22;3.80;99.90
76967;DHT22;65904;52.278;20.972;2023-04-06T11:15:10;3.80;99.90
76967;DHT22;65904;52.278;20.972;2023-04-06T11:17:56;3.90;99.90
76967;DHT22;65904;52.278;20.972;2023-04-06T11:20:47;3.80;99.90
76967;DHT22;65904;52.278;20.972;2023-04-06T11:23:34;3.80;99.90
76967;DHT22;65904;52.278;20.972;2023-04-06T11:26:20;3.80;99.90
76967;DHT22;65904;52.278;20.972;2023-04-06T11:29:08;3.80;99.90
76967;DHT22;65904;52.278;20.972;2023-04-06T11:31:57;3.80;99.90
76967;DHT22;65904;52.278;20.972;2023-04-06T11:34:46;3.80;99.90
76967;DHT22;65904;52.278;20.972;2023-04-06T11:37:33;3.80;99.90
76967;DHT22;65904;52.278;20.972;2023-04-06T11:40:21;3.80;99.90
76967;DHT22;65904;52.278;20.972;2023-04-06T11:43:11;3.80;99.90
76967;DHT22;65904;52.278;20.972;2023-04-06T11:46:03;3.90;99.90
76967;DHT22;65904;52.278;20.972;2023-04-06T11:48:49;4.00;99.90
76967;DHT22;65904;52.278;20.972;2023-04-06T11:51:36;4.00;99.90
76967;DHT22;65904;52.278;20.972;2023-04-06T11:54:32;4.00;99.90
76967;DHT22;65904;52.278;20.972;2023-04-06T11:57:20;4.00;99.90
76967;DHT22;65904;52.278;20.972;2023-04-06T12:00:09;3.90;99.90
76967;DHT22;65904;52.278;20.972;2023-04-06T12:02:57;3.90;99.90
76967;DHT22;65904;52.278;20.972;2023-04-06T12:05:44;4.00;99.90
76967;DHT22;65904;52.278;20.972;2023-04-06T12:08:31;4.00;99.90
76967;DHT22;65904;52.278;20.972;2023-04-06T12:11:17;4.10;99.90
76967;DHT22;65904;52.278;20.972;2023-04-06T12:14:05;4.10;99.90
76967;DHT22;65904;52.278;20.972;2023-04-06T12:16:51;4.20;99.90
76967;DHT22;65904;52.278;20.972;2023-04-06T12:19:39;4.20;99.90
76967;DHT22;65904;52.278;20.972;2023-04-06T12:22:25;4.20;99.90
76967;DHT22;65904;52.278;20.972;2023-04-06T12:25:11;4.20;99.90
76967;DHT22;65904;52.278;20.972;2023-04-06T12:27:58;4.20;99.90
76967;DHT22;65904;52.278;20.972;2023-04-06T12:30:44;4.20;99.90
76967;DHT22;65904;52.278;20.972;2023-04-06T12:33:30;4.30;99.90
76967;DHT22;65904;52.278;20.972;2023-04-06T12:36:19;4.20;99.90
76967;DHT22;65904;52.278;20.972;2023-04-06T12:39:05;4.20;99.90
76967;DHT22;65904;52.278;20.972;2023-04-06T12:41:52;4.20;99.90
76967;DHT22;65904;52.278;20.972;2023-04-06T12:44:38;4.10;99.90
76967;DHT22;65904;52.278;20.972;2023-04-06T12:47:27;4.20;99.90
76967;DHT22;65904;52.278;20.972;2023-04-06T12:50:13;4.20;99.90
76967;DHT22;65904;52.278;20.972;2023-04-06T12:53:00;4.10;99.90
76967;DHT22;65904;52.278;20.972;2023-04-06T12:55:46;4.10;99.90
76967;DHT22;65904;52.278;20.972;2023-04-06T12:58:32;4.10;99.90
76967;DHT22;65904;52.278;20.972;2023-04-06T13:01:20;4.10;99.90
76967;DHT22;65904;52.278;20.972;2023-04-06T13:04:06;4.10;99.90
76967;DHT22;65904;52.278;20.972;2023-04-06T13:06:52;4.00;99.90
76967;DHT22;65904;52.278;20.972;2023-04-06T13:09:40;4.10;99.90
76967;DHT22;65904;52.278;20.972;2023-04-06T13:12:26;4.10;99.90
76967;DHT22;65904;52.278;20.972;2023-04-06T13:15:12;4.10;99.90
76967;DHT22;65904;52.278;20.972;2023-04-06T13:17:58;4.20;99.90
76967;DHT22;65904;52.278;20.972;2023-04-06T13:20:46;4.30;99.90
76967;DHT22;65904;52.278;20.972;2023-04-06T13:23:32;4.30;99.90
76967;DHT22;65904;52.278;20.972;2023-04-06T13:26:20;4.30;99.90
76967;DHT22;65904;52.278;20.972;2023-04-06T13:29:05;4.20;99.90
76967;DHT22;65904;52.278;20.972;2023-04-06T13:31:52;4.20;99.90
76967;DHT22;65904;52.278;20.972;2023-04-06T13:34:38;4.10;99.90
76967;DHT22;65904;52.278;20.972;2023-04-06T13:37:25;4.10;99.90
76967;DHT22;65904;52.278;20.972;2023-04-06T13:40:11;4.10;99.90
76967;DHT22;65904;52.278;20.972;2023-04-06T13:42:59;4.00;99.90
76967;DHT22;65904;52.278;20.972;2023-04-06T13:45:49;4.00;99.90
76967;DHT22;65904;52.278;20.972;2023-04-06T13:48:36;4.00;99.90
76967;DHT22;65904;52.278;20.972;2023-04-06T13:51:21;4.00;99.90
76967;DHT22;65904;52.278;20.972;2023-04-06T13:54:08;3.90;99.90
76967;DHT22;65904;52.278;20.972;2023-04-06T13:56:54;4.00;99.90
76967;DHT22;65904;52.278;20.972;2023-04-06T13:59:43;3.90;99.90
76967;DHT22;65904;52.278;20.972;2023-04-06T14:02:28;3.90;99.90
76967;DHT22;65904;52.278;20.972;2023-04-06T14:05:15;4.00;99.90
76967;DHT22;65904;52.278;20.972;2023-04-06T14:08:02;4.00;99.90
76967;DHT22;65904;52.278;20.972;2023-04-06T14:10:48;4.00;99.90
76967;DHT22;65904;52.278;20.972;2023-04-06T14:13:34;3.90;99.90
76967;DHT22;65904;52.278;20.972;2023-04-06T14:16:23;3.90;99.90
76967;DHT22;65904;52.278;20.972;2023-04-06T14:19:09;3.90;99.90
76967;DHT22;65904;52.278;20.972;2023-04-06T14:21:56;3.80;99.90
76967;DHT22;65904;52.278;20.972;2023-04-06T14:24:43;3.80;99.90
76967;DHT22;65904;52.278;20.972;2023-04-06T14:27:30;3.70;99.90
76967;DHT22;65904;52.278;20.972;2023-04-06T14:30:16;3.80;99.90
76967;DHT22;65904;52.278;20.972;2023-04-06T14:33:05;3.70;99.90
76967;DHT22;65904;52.278;20.972;2023-04-06T14:35:51;3.70;99.90
76967;DHT22;65904;52.278;20.972;2023-04-06T14:38:37;3.70;99.90
76967;DHT22;65904;52.278;20.972;2023-04-06T14:41:24;3.80;99.90
76967;DHT22;65904;52.278;20.972;2023-04-06T14:44:11;3.80;99.90
76967;DHT22;65904;52.278;20.972;2023-04-06T14:46:57;3.80;99.90
76967;DHT22;65904;52.278;20.972;2023-04-06T14:49:46;3.80;99.90
76967;DHT22;65904;52.278;20.972;2023-04-06T14:52:32;3.90;99.90
76967;DHT22;65904;52.278;20.972;2023-04-06T14:55:18;3.90;99.90
76967;DHT22;65904;52.278;20.972;2023-04-06T14:58:04;4.00;99.90
76967;DHT22;65904;52.278;20.972;2023-04-06T15:00:55;4.00;99.90
76967;DHT22;65904;52.278;20.972;2023-04-06T15:03:42;4.00;99.90
76967;DHT22;65904;52.278;20.972;2023-04-06T15:06:30;4.00;99.90
76967;DHT22;65904;52.278;20.972;2023-04-06T15:09:17;4.00;99.90
76967;DHT22;65904;52.278;20.972;2023-04-06T15:12:03;4.00;99.90
76967;DHT22;65904;52.278;20.972;2023-04-06T15:14:50;3.90;99.90
76967;DHT22;65904;52.278;20.972;2023-04-06T15:17:36;4.00;99.90
76967;DHT22;65904;52.278;20.972;2023-04-06T15:20:22;3.90;99.90
76967;DHT22;65904;52.278;20.972;2023-04-06T15:23:10;4.00;99.90
76967;DHT22;65904;52.278;20.972;2023-04-06T15:25:56;4.00;99.90
76967;DHT22;65904;52.278;20.972;2023-04-06T15:28:42;4.00;99.90
76967;DHT22;65904;52.278;20.972;2023-04-06T15:31:29;4.00;99.90
76967;DHT22;65904;52.278;20.972;2023-04-06T15:34:15;4.00;99.90
76967;DHT22;65904;52.278;20.972;2023-04-06T15:37:02;3.90;99.90
76967;DHT22;65904;52.278;20.972;2023-04-06T15:39:50;3.90;99.90
76967;DHT22;65904;52.278;20.972;2023-04-06T15:42:36;3.80;99.90
76967;DHT22;65904;52.278;20.972;2023-04-06T15:45:22;3.80;99.90
76967;DHT22;65904;52.278;20.972;2023-04-06T15:48:08;3.70;99.90
76967;DHT22;65904;52.278;20.972;2023-04-06T15:50:56;3.80;99.90
76967;DHT22;65904;52.278;20.972;2023-04-06T15:53:42;3.80;99.90
76967;DHT22;65904;52.278;20.972;2023-04-06T15:56:31;3.70;99.90
76967;DHT22;65904;52.278;20.972;2023-04-06T15:59:17;3.70;99.90
76967;DHT22;65904;52.278;20.972;2023-04-06T16:02:03;3.70;99.90
76967;DHT22;65904;52.278;20.972;2023-04-06T16:04:53;3.70;99.90
76967;DHT22;65904;52.278;20.972;2023-04-06T16:07:40;3.70;99.90
76967;DHT22;65904;52.278;20.972;2023-04-06T16:10:26;3.70;99.90
76967;DHT22;65904;52.278;20.972;2023-04-06T16:13:14;3.70;99.90
76967;DHT22;65904;52.278;20.972;2023-04-06T16:16:00;3.70;99.90
76967;DHT22;65904;52.278;20.972;2023-04-06T16:18:47;3.80;99.90
76967;DHT22;65904;52.278;20.972;2023-04-06T16:21:33;3.70;99.90
76967;DHT22;65904;52.278;20.972;2023-04-06T16:24:19;3.70;99.90
76967;DHT22;65904;52.278;20.972;2023-04-06T16:27:06;3.70;99.90
76967;DHT22;65904;52.278;20.972;2023-04-06T16:29:54;3.70;99.90
76967;DHT22;65904;52.278;20.972;2023-04-06T16:32:40;3.60;99.90
76967;DHT22;65904;52.278;20.972;2023-04-06T16:35:27;3.60;99.90
76967;DHT22;65904;52.278;20.972;2023-04-06T16:38:13;3.60;99.90
76967;DHT22;65904;52.278;20.972;2023-04-06T16:41:00;3.60;99.90
76967;DHT22;65904;52.278;20.972;2023-04-06T16:43:47;3.60;99.90
76967;DHT22;65904;52.278;20.972;2023-04-06T16:46:35;3.60;99.90
76967;DHT22;65904;52.278;20.972;2023-04-06T16:49:22;3.60;99.90
76967;DHT22;65904;52.278;20.972;2023-04-06T16:52:08;3.60;99.90
76967;DHT22;65904;52.278;20.972;2023-04-06T16:54:54;3.60;99.90
76967;DHT22;65904;52.278;20.972;2023-04-06T16:57:40;3.60;99.90
76967;DHT22;65904;52.278;20.972;2023-04-06T17:00:26;3.50;99.90
76967;DHT22;65904;52.278;20.972;2023-04-06T17:03:14;3.60;99.90
76967;DHT22;65904;52.278;20.972;2023-04-06T17:06:00;3.60;99.90
76967;DHT22;65904;52.278;20.972;2023-04-06T17:08:47;3.60;99.90
76967;DHT22;65904;52.278;20.972;2023-04-06T17:11:34;3.60;99.90
76967;DHT22;65904;52.278;20.972;2023-04-06T17:14:20;3.60;99.90
76967;DHT22;65904;52.278;20.972;2023-04-06T17:17:06;3.60;99.90
76967;DHT22;65904;52.278;20.972;2023-04-06T17:19:53;3.60;99.90
76967;DHT22;65904;52.278;20.972;2023-04-06T17:22:39;3.60;99.90
76967;DHT22;65904;52.278;20.972;2023-04-06T17:25:26;3.60;99.90
76967;DHT22;65904;52.278;20.972;2023-04-06T17:28:12;3.60;99.90
76967;DHT22;65904;52.278;20.972;2023-04-06T17:30:58;3.60;99.90
76967;DHT22;65904;52.278;20.972;2023-04-06T17:33:44;3.60;99.90
76967;DHT22;65904;52.278;20.972;2023-04-06T17:36:32;3.60;99.90
76967;DHT22;65904;52.278;20.972;2023-04-06T17:39:18;3.50;99.90